sensor_id;sensor_type;location;lat;lon;timestamp;pressure;altitude;pressure_sealevel;temperature;humidity
56420;BME280;42323;52.170;7.538;2023-04-07T00:01:04;101012.72;;;6.27;98.47
56420;BME280;42323;52.170;7.538;2023-04-07T00:06:12;101029.84;;;6.39;98.32
56420;BME280;42323;52.170;7.538;2023-04-07T00:08:39;101001.06;;;6.21;98.74
56420;BME280;42323;52.170;7.538;2023-04-07T00:13:40;101029.13;;;6.37;98.46
56420;BME280;42323;52.170;7.538;2023-04-07T00:24:06;100953.06;;;5.96;98.45
56420;BME280;42323;52.170;7.538;2023-04-07T00:26:33;101005.47;;;6.31;99.28
56420;BME280;42323;52.170;7.538;2023-04-07T00:28:59;101005.47;;;6.21;98.54
56420;BME280;42323;52.170;7.538;2023-04-07T00:31:26;101009.31;;;6.26;99.25
56420;BME280;42323;52.170;7.538;2023-04-07T00:33:52;101020.38;;;6.38;99.72
56420;BME280;42323;52.170;7.538;2023-04-07T00:36:19;101001.06;;;6.21;98.64
56420;BME280;42323;52.170;7.538;2023-04-07T00:38:46;101006.72;;;6.26;99.09
56420;BME280;42323;52.170;7.538;2023-04-07T00:41:13;101000.53;;;6.27;98.84
56420;BME280;42323;52.170;7.538;2023-04-07T00:46:14;100984.66;;;6.11;98.96
56420;BME280;42323;52.170;7.538;2023-04-07T00:54:05;101000.41;;;6.19;99.52
56420;BME280;42323;52.170;7.538;2023-04-07T01:45:07;100985.75;;;6.28;100.00
56420;BME280;42323;52.170;7.538;2023-04-07T01:47:35;100976.03;;;6.20;100.00
56420;BME280;42323;52.170;7.538;2023-04-07T01:50:06;100974.53;;;6.18;99.60
56420;BME280;42323;52.170;7.538;2023-04-07T01:52:35;100974.00;;;6.14;100.00
56420;BME280;42323;52.170;7.538;2023-04-07T01:55:03;100977.41;;;6.15;100.00
56420;BME280;42323;52.170;7.538;2023-04-07T01:57:30;100984.53;;;6.22;100.00
56420;BME280;42323;52.170;7.538;2023-04-07T01:59:57;100976.03;;;6.20;100.00
56420;BME280;42323;52.170;7.538;2023-04-07T02:02:23;100984.94;;;6.27;100.00
56420;BME280;42323;52.170;7.538;2023-04-07T02:45:17;100958.25;;;6.06;100.00
56420;BME280;42323;52.170;7.538;2023-04-07T02:47:43;100988.91;;;6.22;100.00
56420;BME280;42323;52.170;7.538;2023-04-07T02:50:10;100991.22;;;6.25;100.00
56420;BME280;42323;52.170;7.538;2023-04-07T02:52:36;100987.25;;;6.21;100.00
56420;BME280;42323;52.170;7.538;2023-04-07T02:55:03;100996.28;;;6.26;100.00
56420;BME280;42323;52.170;7.538;2023-04-07T02:57:30;100979.75;;;6.18;100.00
56420;BME280;42323;52.170;7.538;2023-04-07T02:59:56;100987.25;;;6.21;100.00
56420;BME280;42323;52.170;7.538;2023-04-07T03:02:23;100982.59;;;6.15;100.00
56420;BME280;42323;52.170;7.538;2023-04-07T03:04:50;100988.22;;;6.20;100.00
56420;BME280;42323;52.170;7.538;2023-04-07T03:07:18;100997.13;;;6.27;100.00
56420;BME280;42323;52.170;7.538;2023-04-07T03:09:44;100994.94;;;6.22;100.00
56420;BME280;42323;52.170;7.538;2023-04-07T03:12:11;101000.94;;;6.23;100.00
56420;BME280;42323;52.170;7.538;2023-04-07T03:14:38;101000.66;;;6.26;100.00
56420;BME280;42323;52.170;7.538;2023-04-07T03:17:04;100993.69;;;6.17;100.00
56420;BME280;42323;52.170;7.538;2023-04-07T03:19:31;100999.84;;;6.25;100.00
56420;BME280;42323;52.170;7.538;2023-04-07T03:21:58;100971.41;;;6.05;100.00
56420;BME280;42323;52.170;7.538;2023-04-07T03:37:47;101000.56;;;6.18;100.00
56420;BME280;42323;52.170;7.538;2023-04-07T03:40:14;100944.00;;;5.81;100.00
56420;BME280;42323;52.170;7.538;2023-04-07T03:45:22;101005.34;;;6.22;100.00
56420;BME280;42323;52.170;7.538;2023-04-07T03:47:49;100974.28;;;6.01;100.00
56420;BME280;42323;52.170;7.538;2023-04-07T03:55:33;101015.75;;;6.22;100.00
56420;BME280;42323;52.170;7.538;2023-04-07T04:24:52;101016.00;;;6.19;100.00
56420;BME280;42323;52.170;7.538;2023-04-07T04:27:19;100990.97;;;5.99;100.00
56420;BME280;42323;52.170;7.538;2023-04-07T04:29:46;101023.13;;;6.17;100.00
56420;BME280;42323;52.170;7.538;2023-04-07T04:32:12;100996.03;;;6.00;100.00
56420;BME280;42323;52.170;7.538;2023-04-07T04:34:38;100932.63;;;5.63;100.00
56420;BME280;42323;52.170;7.538;2023-04-07T04:39:48;101026.84;;;6.15;100.00
56420;BME280;42323;52.170;7.538;2023-04-07T04:45:02;100919.91;;;5.50;100.00
56420;BME280;42323;52.170;7.538;2023-04-07T04:50:09;101038.59;;;6.19;100.00
56420;BME280;42323;52.170;7.538;2023-04-07T04:57:59;100858.59;;;4.99;100.00
56420;BME280;42323;52.170;7.538;2023-04-07T05:05:32;101034.22;;;6.10;100.00
56420;BME280;42323;52.170;7.538;2023-04-07T05:08:01;101023.81;;;6.00;100.00
56420;BME280;42323;52.170;7.538;2023-04-07T05:10:27;101049.97;;;6.18;100.00
56420;BME280;42323;52.170;7.538;2023-04-07T05:12:57;101026.13;;;6.03;100.00
56420;BME280;42323;52.170;7.538;2023-04-07T05:15:23;101046.13;;;6.12;100.00
56420;BME280;42323;52.170;7.538;2023-04-07T05:17:50;101053.81;;;6.14;100.00
56420;BME280;42323;52.170;7.538;2023-04-07T05:20:22;100949.56;;;5.47;100.00
56420;BME280;42323;52.170;7.538;2023-04-07T05:22:57;101042.72;;;6.12;100.00
56420;BME280;42323;52.170;7.538;2023-04-07T05:25:29;101029.72;;;6.02;100.00
56420;BME280;42323;52.170;7.538;2023-04-07T05:27:57;101062.84;;;6.19;100.00
56420;BME280;42323;52.170;7.538;2023-04-07T05:30:24;101051.31;;;6.12;100.00
56420;BME280;42323;52.170;7.538;2023-04-07T05:32:51;101049.69;;;6.11;100.00
56420;BME280;42323;52.170;7.538;2023-04-07T05:35:21;101001.91;;;5.83;100.00
56420;BME280;42323;52.170;7.538;2023-04-07T05:37:48;101063.41;;;6.23;100.00
56420;BME280;42323;52.170;7.538;2023-04-07T05:40:14;101051.06;;;6.15;100.00
56420;BME280;42323;52.170;7.538;2023-04-07T05:42:41;101070.78;;;6.27;100.00
56420;BME280;42323;52.170;7.538;2023-04-07T05:45:08;101071.34;;;6.31;100.00
56420;BME280;42323;52.170;7.538;2023-04-07T05:47:35;101078.19;;;6.32;100.00
56420;BME280;42323;52.170;7.538;2023-04-07T05:50:02;101056.00;;;6.18;100.00
56420;BME280;42323;52.170;7.538;2023-04-07T05:52:29;101079.16;;;6.31;100.00
56420;BME280;42323;52.170;7.538;2023-04-07T05:54:56;101065.03;;;6.24;100.00
56420;BME280;42323;52.170;7.538;2023-04-07T05:57:22;101065.19;;;6.22;100.00
56420;BME280;42323;52.170;7.538;2023-04-07T05:59:49;101070.53;;;6.31;100.00
56420;BME280;42323;52.170;7.538;2023-04-07T06:02:16;101061.63;;;6.23;100.00
56420;BME280;42323;52.170;7.538;2023-04-07T06:04:42;101084.50;;;6.39;100.00
56420;BME280;42323;52.170;7.538;2023-04-07T06:07:09;101087.09;;;6.39;100.00
56420;BME280;42323;52.170;7.538;2023-04-07T06:09:35;101076.53;;;6.31;100.00
56420;BME280;42323;52.170;7.538;2023-04-07T06:12:02;101093.78;;;6.42;100.00
56420;BME280;42323;52.170;7.538;2023-04-07T06:14:31;101090.50;;;6.40;100.00
56420;BME280;42323;52.170;7.538;2023-04-07T06:17:00;100941.25;;;5.53;100.00
56420;BME280;42323;52.170;7.538;2023-04-07T06:22:02;101002.97;;;5.90;100.00
56420;BME280;42323;52.170;7.538;2023-04-07T06:38:10;101115.13;;;6.65;100.00
56420;BME280;42323;52.170;7.538;2023-04-07T06:40:37;100968.75;;;5.75;100.00
56420;BME280;42323;52.170;7.538;2023-04-07T06:43:04;101071.59;;;6.38;100.00
56420;BME280;42323;52.170;7.538;2023-04-07T06:45:31;100975.19;;;5.81;100.00
56420;BME280;42323;52.170;7.538;2023-04-07T06:53:21;100977.13;;;5.79;100.00
56420;BME280;42323;52.170;7.538;2023-04-07T07:03:46;101119.50;;;6.93;100.00
56420;BME280;42323;52.170;7.538;2023-04-07T07:06:13;101133.31;;;7.03;100.00
56420;BME280;42323;52.170;7.538;2023-04-07T07:08:40;101118.69;;;6.93;100.00
56420;BME280;42323;52.170;7.538;2023-04-07T07:11:06;101128.09;;;7.03;100.00
56420;BME280;42323;52.170;7.538;2023-04-07T07:13:33;101137.44;;;7.06;100.00
56420;BME280;42323;52.170;7.538;2023-04-07T07:16:02;101106.47;;;6.93;100.00
56420;BME280;42323;52.170;7.538;2023-04-07T07:18:29;101140.56;;;7.19;100.00
56420;BME280;42323;52.170;7.538;2023-04-07T07:20:57;101135.88;;;7.23;100.00
56420;BME280;42323;52.170;7.538;2023-04-07T07:31:23;101078.94;;;6.81;99.98
56420;BME280;42323;52.170;7.538;2023-04-07T07:33:50;101153.28;;;7.32;100.00
56420;BME280;42323;52.170;7.538;2023-04-07T07:36:17;101129.84;;;7.22;99.88
56420;BME280;42323;52.170;7.538;2023-04-07T07:38:43;101036.91;;;6.66;99.78
56420;BME280;42323;52.170;7.538;2023-04-07T07:41:10;101052.09;;;6.81;100.00
56420;BME280;42323;52.170;7.538;2023-04-07T07:46:13;101165.03;;;7.56;99.71
56420;BME280;42323;52.170;7.538;2023-04-07T07:48:40;101163.91;;;7.58;99.44
56420;BME280;42323;52.170;7.538;2023-04-07T07:51:07;101154.72;;;7.54;99.42
56420;BME280;42323;52.170;7.538;2023-04-07T07:53:33;101179.50;;;7.68;98.39
56420;BME280;42323;52.170;7.538;2023-04-07T07:56:00;101167.81;;;7.72;98.51
56420;BME280;42323;52.170;7.538;2023-04-07T07:58:27;101173.41;;;7.77;98.72
56420;BME280;42323;52.170;7.538;2023-04-07T08:00:53;101187.00;;;7.80;98.03
56420;BME280;42323;52.170;7.538;2023-04-07T08:03:20;101163.56;;;7.71;97.83
56420;BME280;42323;52.170;7.538;2023-04-07T08:05:48;101185.22;;;7.81;97.32
56420;BME280;42323;52.170;7.538;2023-04-07T08:08:14;101185.78;;;7.75;97.33
56420;BME280;42323;52.170;7.538;2023-04-07T08:10:42;101181.97;;;7.69;97.93
56420;BME280;42323;52.170;7.538;2023-04-07T08:13:09;101196.34;;;7.83;97.50
56420;BME280;42323;52.170;7.538;2023-04-07T08:15:36;101201.66;;;7.91;97.98
56420;BME280;42323;52.170;7.538;2023-04-07T08:18:02;101200.16;;;7.89;97.53
56420;BME280;42323;52.170;7.538;2023-04-07T08:20:32;101204.53;;;7.88;96.92
56420;BME280;42323;52.170;7.538;2023-04-07T08:22:59;101179.59;;;7.76;97.07
56420;BME280;42323;52.170;7.538;2023-04-07T08:25:28;101160.72;;;7.64;97.10
56420;BME280;42323;52.170;7.538;2023-04-07T08:27:55;101109.81;;;7.23;96.68
56420;BME280;42323;52.170;7.538;2023-04-07T08:30:23;101202.53;;;7.82;97.81
56420;BME280;42323;52.170;7.538;2023-04-07T08:32:51;101190.09;;;7.66;96.60
56420;BME280;42323;52.170;7.538;2023-04-07T08:35:17;101218.69;;;7.86;97.96
56420;BME280;42323;52.170;7.538;2023-04-07T08:37:51;101233.09;;;7.90;97.01
56420;BME280;42323;52.170;7.538;2023-04-07T08:40:17;101224.56;;;7.97;96.75
56420;BME280;42323;52.170;7.538;2023-04-07T08:42:46;101229.06;;;8.05;97.13
56420;BME280;42323;52.170;7.538;2023-04-07T08:45:22;101198.66;;;7.86;96.56
56420;BME280;42323;52.170;7.538;2023-04-07T08:48:16;101190.84;;;7.86;96.63
56420;BME280;42323;52.170;7.538;2023-04-07T08:54:37;101172.91;;;8.01;96.24
56420;BME280;42323;52.170;7.538;2023-04-07T08:57:32;101177.16;;;8.20;95.03
56420;BME280;42323;52.170;7.538;2023-04-07T09:01:27;101178.44;;;8.43;95.03
56420;BME280;42323;52.170;7.538;2023-04-07T09:25:31;101239.19;;;8.36;94.12
56420;BME280;42323;52.170;7.538;2023-04-07T09:28:03;101245.97;;;8.28;93.30
56420;BME280;42323;52.170;7.538;2023-04-07T09:30:32;101261.25;;;8.23;93.73
56420;BME280;42323;52.170;7.538;2023-04-07T09:33:00;101263.47;;;8.18;94.55
56420;BME280;42323;52.170;7.538;2023-04-07T09:35:27;101250.69;;;8.15;94.26
56420;BME280;42323;52.170;7.538;2023-04-07T09:38:05;101255.63;;;8.18;95.49
56420;BME280;42323;52.170;7.538;2023-04-07T09:40:33;101262.75;;;8.26;95.32
56420;BME280;42323;52.170;7.538;2023-04-07T09:43:01;101223.28;;;8.01;94.69
56420;BME280;42323;52.170;7.538;2023-04-07T09:53:50;101250.66;;;8.52;94.51
56420;BME280;42323;52.170;7.538;2023-04-07T10:19:42;101269.13;;;9.04;91.26
56420;BME280;42323;52.170;7.538;2023-04-07T10:26:10;101265.97;;;9.19;91.43
56420;BME280;42323;52.170;7.538;2023-04-07T10:28:40;101285.47;;;9.42;90.67
56420;BME280;42323;52.170;7.538;2023-04-07T10:40:34;101290.84;;;9.67;90.16
56420;BME280;42323;52.170;7.538;2023-04-07T10:43:02;101305.13;;;9.72;90.34
56420;BME280;42323;52.170;7.538;2023-04-07T10:49:25;101287.88;;;9.62;89.65
56420;BME280;42323;52.170;7.538;2023-04-07T10:54:38;101306.66;;;9.83;88.44
56420;BME280;42323;52.170;7.538;2023-04-07T10:57:14;101303.22;;;9.83;87.99
56420;BME280;42323;52.170;7.538;2023-04-07T11:04:58;101308.03;;;9.95;87.86
56420;BME280;42323;52.170;7.538;2023-04-07T11:15:30;101311.41;;;10.14;88.33
56420;BME280;42323;52.170;7.538;2023-04-07T11:23:17;101326.47;;;10.12;86.75
56420;BME280;42323;52.170;7.538;2023-04-07T11:25:46;101324.53;;;10.22;87.27
56420;BME280;42323;52.170;7.538;2023-04-07T11:28:13;101308.25;;;10.28;86.85
56420;BME280;42323;52.170;7.538;2023-04-07T11:30:52;101306.97;;;10.40;87.29
56420;BME280;42323;52.170;7.538;2023-04-07T11:33:22;101324.19;;;10.43;86.22
56420;BME280;42323;52.170;7.538;2023-04-07T11:35:56;101321.72;;;10.41;85.58
56420;BME280;42323;52.170;7.538;2023-04-07T11:38:28;101334.16;;;10.39;83.97
56420;BME280;42323;52.170;7.538;2023-04-07T11:40:56;101335.72;;;10.24;82.86
56420;BME280;42323;52.170;7.538;2023-04-07T11:43:24;101330.22;;;10.09;83.77
56420;BME280;42323;52.170;7.538;2023-04-07T11:46:05;101333.97;;;10.07;83.10
56420;BME280;42323;52.170;7.538;2023-04-07T11:48:33;101327.91;;;10.06;83.42
56420;BME280;42323;52.170;7.538;2023-04-07T11:51:01;101302.34;;;10.00;82.25
56420;BME280;42323;52.170;7.538;2023-04-07T11:53:33;101325.31;;;10.14;80.44
56420;BME280;42323;52.170;7.538;2023-04-07T11:56:04;101344.06;;;10.27;80.96
56420;BME280;42323;52.170;7.538;2023-04-07T11:58:32;101339.22;;;10.33;80.21
56420;BME280;42323;52.170;7.538;2023-04-07T12:01:00;101353.22;;;10.49;79.83
56420;BME280;42323;52.170;7.538;2023-04-07T12:03:34;101345.22;;;10.59;80.09
56420;BME280;42323;52.170;7.538;2023-04-07T12:06:04;101341.81;;;10.75;80.31
56420;BME280;42323;52.170;7.538;2023-04-07T12:08:41;101348.78;;;11.09;79.45
56420;BME280;42323;52.170;7.538;2023-04-07T12:11:09;101348.50;;;11.28;80.21
56420;BME280;42323;52.170;7.538;2023-04-07T12:13:36;101323.38;;;11.17;79.52
56420;BME280;42323;52.170;7.538;2023-04-07T12:16:03;101354.56;;;11.28;78.92
56420;BME280;42323;52.170;7.538;2023-04-07T12:18:30;101335.53;;;11.10;78.34
56420;BME280;42323;52.170;7.538;2023-04-07T12:20:56;101350.06;;;11.04;78.83
56420;BME280;42323;52.170;7.538;2023-04-07T12:23:24;101357.63;;;10.99;78.50
56420;BME280;42323;52.170;7.538;2023-04-07T12:25:54;101335.94;;;10.81;78.76
56420;BME280;42323;52.170;7.538;2023-04-07T12:28:20;101365.31;;;10.93;77.70
56420;BME280;42323;52.170;7.538;2023-04-07T12:30:49;101357.72;;;10.82;77.96
56420;BME280;42323;52.170;7.538;2023-04-07T12:33:22;101373.31;;;10.91;77.54
56420;BME280;42323;52.170;7.538;2023-04-07T12:35:48;101362.66;;;10.85;78.87
56420;BME280;42323;52.170;7.538;2023-04-07T12:38:15;101370.56;;;11.01;78.09
56420;BME280;42323;52.170;7.538;2023-04-07T12:40:42;101370.25;;;11.04;78.13
56420;BME280;42323;52.170;7.538;2023-04-07T12:43:09;101363.19;;;11.04;76.59
56420;BME280;42323;52.170;7.538;2023-04-07T12:45:35;101370.09;;;11.14;76.35
56420;BME280;42323;52.170;7.538;2023-04-07T12:48:02;101368.16;;;11.16;76.22
56420;BME280;42323;52.170;7.538;2023-04-07T12:50:29;101362.91;;;11.24;74.66
56420;BME280;42323;52.170;7.538;2023-04-07T12:52:56;101379.13;;;11.19;72.01
56420;BME280;42323;52.170;7.538;2023-04-07T12:55:25;101381.75;;;11.11;73.16
56420;BME280;42323;52.170;7.538;2023-04-07T12:57:51;101381.41;;;11.06;74.23
56420;BME280;42323;52.170;7.538;2023-04-07T13:00:18;101376.94;;;10.90;73.28
56420;BME280;42323;52.170;7.538;2023-04-07T13:02:44;101381.03;;;10.93;74.12
56420;BME280;42323;52.170;7.538;2023-04-07T13:05:11;101382.50;;;10.95;75.36
56420;BME280;42323;52.170;7.538;2023-04-07T13:07:38;101379.59;;;11.07;75.48
56420;BME280;42323;52.170;7.538;2023-04-07T13:10:04;101377.81;;;11.15;74.84
56420;BME280;42323;52.170;7.538;2023-04-07T13:12:33;101371.78;;;11.23;74.76
56420;BME280;42323;52.170;7.538;2023-04-07T13:15:00;101370.91;;;11.22;74.50
56420;BME280;42323;52.170;7.538;2023-04-07T13:17:27;101378.16;;;11.28;73.53
56420;BME280;42323;52.170;7.538;2023-04-07T13:19:55;101377.19;;;11.38;73.58
56420;BME280;42323;52.170;7.538;2023-04-07T13:22:21;101386.22;;;11.51;72.34
56420;BME280;42323;52.170;7.538;2023-04-07T13:24:50;101383.41;;;11.61;71.55
56420;BME280;42323;52.170;7.538;2023-04-07T13:27:16;101362.28;;;11.54;71.30
56420;BME280;42323;52.170;7.538;2023-04-07T13:29:43;101385.09;;;11.87;71.42
56420;BME280;42323;52.170;7.538;2023-04-07T13:32:10;101383.41;;;12.18;69.84
56420;BME280;42323;52.170;7.538;2023-04-07T13:34:40;101382.19;;;12.37;68.83
56420;BME280;42323;52.170;7.538;2023-04-07T13:37:07;101385.41;;;12.55;68.26
56420;BME280;42323;52.170;7.538;2023-04-07T13:39:36;101381.88;;;12.79;67.11
56420;BME280;42323;52.170;7.538;2023-04-07T13:42:03;101335.91;;;12.67;65.69
56420;BME280;42323;52.170;7.538;2023-04-07T13:44:30;101381.88;;;13.11;65.66
56420;BME280;42323;52.170;7.538;2023-04-07T13:46:57;101384.69;;;13.09;65.22
56420;BME280;42323;52.170;7.538;2023-04-07T14:00:51;101339.19;;;13.00;63.50
56420;BME280;42323;52.170;7.538;2023-04-07T14:03:21;101358.09;;;13.04;63.22
56420;BME280;42323;52.170;7.538;2023-04-07T14:05:51;101356.94;;;12.98;64.23
56420;BME280;42323;52.170;7.538;2023-04-07T14:08:19;101354.69;;;12.95;64.08
56420;BME280;42323;52.170;7.538;2023-04-07T14:10:48;101363.53;;;12.94;63.43
56420;BME280;42323;52.170;7.538;2023-04-07T14:13:15;101353.28;;;12.76;65.17
56420;BME280;42323;52.170;7.538;2023-04-07T14:15:42;101353.13;;;12.78;64.76
56420;BME280;42323;52.170;7.538;2023-04-07T14:18:12;101322.50;;;12.54;64.81
56420;BME280;42323;52.170;7.538;2023-04-07T14:20:39;101332.69;;;12.57;64.62
56420;BME280;42323;52.170;7.538;2023-04-07T14:23:05;101336.28;;;12.56;64.12
56420;BME280;42323;52.170;7.538;2023-04-07T14:25:32;101354.38;;;12.51;62.39
56420;BME280;42323;52.170;7.538;2023-04-07T14:27:58;101373.09;;;12.56;63.58
56420;BME280;42323;52.170;7.538;2023-04-07T14:30:25;101386.94;;;12.50;64.32
56420;BME280;42323;52.170;7.538;2023-04-07T14:32:51;101366.75;;;12.34;65.14
56420;BME280;42323;52.170;7.538;2023-04-07T14:35:21;101364.81;;;12.28;64.74
56420;BME280;42323;52.170;7.538;2023-04-07T14:37:50;101376.31;;;12.27;65.46
56420;BME280;42323;52.170;7.538;2023-04-07T14:40:17;101380.59;;;12.20;64.70
56420;BME280;42323;52.170;7.538;2023-04-07T14:42:46;101372.56;;;12.13;65.60
56420;BME280;42323;52.170;7.538;2023-04-07T14:45:14;101363.91;;;11.96;66.48
56420;BME280;42323;52.170;7.538;2023-04-07T14:47:45;101373.25;;;11.91;65.75
56420;BME280;42323;52.170;7.538;2023-04-07T14:50:16;101381.63;;;11.86;65.87
56420;BME280;42323;52.170;7.538;2023-04-07T14:52:46;101388.53;;;11.87;66.22
56420;BME280;42323;52.170;7.538;2023-04-07T14:55:13;101384.63;;;11.83;66.08
56420;BME280;42323;52.170;7.538;2023-04-07T14:57:39;101391.00;;;11.89;65.83
56420;BME280;42323;52.170;7.538;2023-04-07T15:00:06;101357.03;;;11.63;65.55
56420;BME280;42323;52.170;7.538;2023-04-07T15:02:34;101398.38;;;11.85;65.52
56420;BME280;42323;52.170;7.538;2023-04-07T15:05:02;101384.09;;;11.79;65.91
56420;BME280;42323;52.170;7.538;2023-04-07T15:07:28;101391.16;;;11.87;66.71
56420;BME280;42323;52.170;7.538;2023-04-07T15:09:55;101364.91;;;11.71;65.24
56420;BME280;42323;52.170;7.538;2023-04-07T15:12:22;101401.19;;;11.92;64.96
56420;BME280;42323;52.170;7.538;2023-04-07T15:14:50;101400.00;;;11.78;64.90
56420;BME280;42323;52.170;7.538;2023-04-07T15:17:17;101393.28;;;11.67;65.59
56420;BME280;42323;52.170;7.538;2023-04-07T15:23:32;101407.03;;;11.61;65.74
56420;BME280;42323;52.170;7.538;2023-04-07T15:26:23;101406.56;;;11.49;65.89
56420;BME280;42323;52.170;7.538;2023-04-07T15:28:50;101412.13;;;11.54;66.54
56420;BME280;42323;52.170;7.538;2023-04-07T15:31:17;101410.66;;;11.52;66.67
56420;BME280;42323;52.170;7.538;2023-04-07T15:33:43;101416.91;;;11.59;65.96
56420;BME280;42323;52.170;7.538;2023-04-07T15:36:10;101404.28;;;11.63;65.72
56420;BME280;42323;52.170;7.538;2023-04-07T15:38:36;101422.31;;;11.82;65.33
56420;BME280;42323;52.170;7.538;2023-04-07T15:41:05;101405.28;;;11.86;65.21
56420;BME280;42323;52.170;7.538;2023-04-07T15:43:32;101359.97;;;11.76;64.41
56420;BME280;42323;52.170;7.538;2023-04-07T15:46:00;101360.44;;;11.96;64.78
56420;BME280;42323;52.170;7.538;2023-04-07T15:48:26;101352.25;;;11.99;64.67
56420;BME280;42323;52.170;7.538;2023-04-07T15:50:53;101397.19;;;12.20;64.08
56420;BME280;42323;52.170;7.538;2023-04-07T15:53:20;101417.03;;;12.39;64.16
56420;BME280;42323;52.170;7.538;2023-04-07T15:55:46;101420.31;;;12.41;64.31
56420;BME280;42323;52.170;7.538;2023-04-07T15:58:13;101421.28;;;12.40;64.73
56420;BME280;42323;52.170;7.538;2023-04-07T16:00:39;101417.84;;;12.40;63.90
56420;BME280;42323;52.170;7.538;2023-04-07T16:03:06;101415.91;;;12.25;64.87
56420;BME280;42323;52.170;7.538;2023-04-07T16:05:33;101423.94;;;12.24;63.55
56420;BME280;42323;52.170;7.538;2023-04-07T16:07:59;101423.97;;;12.08;64.14
56420;BME280;42323;52.170;7.538;2023-04-07T16:10:26;101420.84;;;11.96;64.21
56420;BME280;42323;52.170;7.538;2023-04-07T16:12:52;101422.19;;;11.92;64.34
56420;BME280;42323;52.170;7.538;2023-04-07T16:15:19;101416.09;;;11.75;65.49
56420;BME280;42323;52.170;7.538;2023-04-07T16:18:06;101422.97;;;11.68;65.27
56420;BME280;42323;52.170;7.538;2023-04-07T16:20:33;101424.47;;;11.62;64.57
56420;BME280;42323;52.170;7.538;2023-04-07T16:23:00;101428.50;;;11.48;65.94
56420;BME280;42323;52.170;7.538;2023-04-07T16:25:26;101430.00;;;11.43;66.57
56420;BME280;42323;52.170;7.538;2023-04-07T16:27:53;101421.94;;;11.28;66.77
56420;BME280;42323;52.170;7.538;2023-04-07T16:30:19;101434.06;;;11.21;67.53
56420;BME280;42323;52.170;7.538;2023-04-07T16:32:46;101434.69;;;11.15;67.70
56420;BME280;42323;52.170;7.538;2023-04-07T16:35:14;101425.63;;;11.01;67.90
56420;BME280;42323;52.170;7.538;2023-04-07T16:37:41;101447.75;;;10.98;68.55
56420;BME280;42323;52.170;7.538;2023-04-07T16:40:09;101442.78;;;10.87;69.12
56420;BME280;42323;52.170;7.538;2023-04-07T16:42:35;101453.41;;;10.77;69.26
56420;BME280;42323;52.170;7.538;2023-04-07T16:45:02;101446.25;;;10.62;69.37
56420;BME280;42323;52.170;7.538;2023-04-07T16:47:30;101441.59;;;10.47;70.15
56420;BME280;42323;52.170;7.538;2023-04-07T16:49:57;101455.34;;;10.41;71.22
56420;BME280;42323;52.170;7.538;2023-04-07T16:52:24;101461.50;;;10.32;71.70
56420;BME280;42323;52.170;7.538;2023-04-07T16:54:51;101451.53;;;10.18;72.39
56420;BME280;42323;52.170;7.538;2023-04-07T16:57:17;101466.88;;;10.13;72.64
56420;BME280;42323;52.170;7.538;2023-04-07T16:59:44;101465.53;;;10.09;73.19
56420;BME280;42323;52.170;7.538;2023-04-07T17:02:13;101447.78;;;9.94;73.54
56420;BME280;42323;52.170;7.538;2023-04-07T17:04:42;101464.00;;;9.98;74.55
56420;BME280;42323;52.170;7.538;2023-04-07T17:07:09;101466.75;;;9.96;74.05
56420;BME280;42323;52.170;7.538;2023-04-07T17:09:37;101479.56;;;9.99;74.19
56420;BME280;42323;52.170;7.538;2023-04-07T17:12:04;101472.00;;;9.96;74.50
56420;BME280;42323;52.170;7.538;2023-04-07T17:14:31;101486.44;;;10.00;74.84
56420;BME280;42323;52.170;7.538;2023-04-07T17:16:58;101478.38;;;9.94;74.68
56420;BME280;42323;52.170;7.538;2023-04-07T17:19:24;101484.13;;;9.97;74.91
56420;BME280;42323;52.170;7.538;2023-04-07T17:21:51;101484.25;;;9.96;74.53
56420;BME280;42323;52.170;7.538;2023-04-07T17:24:17;101499.22;;;10.03;75.11
56420;BME280;42323;52.170;7.538;2023-04-07T17:26:44;101490.19;;;9.98;75.13
56420;BME280;42323;52.170;7.538;2023-04-07T17:29:15;101495.91;;;10.01;74.97
56420;BME280;42323;52.170;7.538;2023-04-07T17:31:42;101502.00;;;10.02;74.55
56420;BME280;42323;52.170;7.538;2023-04-07T17:34:09;101511.13;;;9.98;75.16
56420;BME280;42323;52.170;7.538;2023-04-07T17:36:36;101513.06;;;9.96;75.39
56420;BME280;42323;52.170;7.538;2023-04-07T17:39:03;101514.78;;;9.87;75.54
56420;BME280;42323;52.170;7.538;2023-04-07T17:41:33;101524.34;;;9.78;76.22
56420;BME280;42323;52.170;7.538;2023-04-07T17:44:00;101513.34;;;9.57;76.52
56420;BME280;42323;52.170;7.538;2023-04-07T17:46:27;101521.69;;;9.43;77.75
56420;BME280;42323;52.170;7.538;2023-04-07T17:48:54;101517.06;;;9.27;78.23
56420;BME280;42323;52.170;7.538;2023-04-07T17:51:24;101515.38;;;9.08;77.79
56420;BME280;42323;52.170;7.538;2023-04-07T17:53:51;101541.25;;;9.01;79.23
56420;BME280;42323;52.170;7.538;2023-04-07T17:56:19;101539.78;;;8.89;78.83
56420;BME280;42323;52.170;7.538;2023-04-07T17:58:46;101536.00;;;8.74;79.24
56420;BME280;42323;52.170;7.538;2023-04-07T18:01:12;101539.47;;;8.65;79.34
56420;BME280;42323;52.170;7.538;2023-04-07T18:03:39;101542.22;;;8.53;80.38
56420;BME280;42323;52.170;7.538;2023-04-07T18:06:06;101551.28;;;8.49;80.97
56420;BME280;42323;52.170;7.538;2023-04-07T18:08:33;101536.59;;;8.29;81.41
56420;BME280;42323;52.170;7.538;2023-04-07T18:11:00;101544.41;;;8.19;82.39
56420;BME280;42323;52.170;7.538;2023-04-07T18:13:26;101549.63;;;8.10;82.92
56420;BME280;42323;52.170;7.538;2023-04-07T18:15:53;101543.56;;;7.90;84.80
56420;BME280;42323;52.170;7.538;2023-04-07T18:18:19;101558.00;;;7.84;84.37
56420;BME280;42323;52.170;7.538;2023-04-07T18:20:48;101566.47;;;7.76;85.13
56420;BME280;42323;52.170;7.538;2023-04-07T18:23:14;101571.94;;;7.64;86.21
56420;BME280;42323;52.170;7.538;2023-04-07T18:25:41;101562.28;;;7.45;86.64